Time;durP1;ratioP1;P1;durP2;ratioP2;P2;SDS_P1;SDS_P2;PMS_P1;PMS_P2;Temp;Humidity;BMP_temperature;BMP_pressure;BME280_temperature;BME280_humidity;BME280_pressure;Samples;Min_cycle;Max_cycle;Signal;HPM_P1;HPM_P2
2022/08/30 00:01:02;;;;;;;3.50;1.40;;;25.90;99.90;;;;;;5005537;28;20065;-73
2022/08/30 00:03:30;;;;;;;2.88;1.60;;;25.90;99.90;;;;;;5001730;28;20026;-74
2022/08/30 00:05:56;;;;;;;3.85;1.80;;;25.80;99.90;;;;;;5005771;28;20026;-74
2022/08/30 00:08:21;;;;;;;2.42;1.60;;;25.80;99.90;;;;;;4982335;28;20105;-74
2022/08/30 00:10:50;;;;;;;3.08;1.65;;;25.80;99.90;;;;;;4987146;28;20061;-74
2022/08/30 00:13:17;;;;;;;4.00;1.85;;;25.70;99.90;;;;;;5004186;28;20042;-74
2022/08/30 00:15:43;;;;;;;3.22;1.50;;;25.60;99.90;;;;;;4985979;28;20026;-74
2022/08/30 00:18:10;;;;;;;3.88;1.83;;;25.70;99.90;;;;;;4987981;28;20038;-74
2022/08/30 00:20:37;;;;;;;4.72;1.80;;;25.70;99.90;;;;;;5002399;28;20022;-73
2022/08/30 00:23:04;;;;;;;5.65;1.63;;;25.60;99.90;;;;;;5000172;28;20132;-73
2022/08/30 00:25:30;;;;;;;4.68;1.58;;;25.60;99.90;;;;;;5002678;28;20484;-74
2022/08/30 00:27:56;;;;;;;3.00;1.70;;;25.60;99.90;;;;;;4998999;28;20040;-74
2022/08/30 00:30:24;;;;;;;3.33;1.60;;;25.60;99.90;;;;;;4982240;28;20865;-73
2022/08/30 00:32:50;;;;;;;3.47;1.60;;;25.70;99.90;;;;;;5002943;28;20144;-73
2022/08/30 00:35:19;;;;;;;4.72;1.77;;;25.60;99.90;;;;;;5000101;28;20497;-74
2022/08/30 00:37:45;;;;;;;4.50;1.88;;;25.70;99.90;;;;;;5001457;28;20041;-74
2022/08/30 00:40:14;;;;;;;3.70;1.98;;;25.60;99.90;;;;;;4997512;28;20405;-74
2022/08/30 00:42:42;;;;;;;3.30;1.85;;;25.60;99.90;;;;;;4986526;28;20061;-73
2022/08/30 00:45:18;;;;;;;3.20;1.80;;;25.50;99.90;;;;;;4984099;28;20363;-72
2022/08/30 00:47:44;;;;;;;5.03;2.08;;;25.40;99.90;;;;;;5000944;28;20033;-74
2022/08/30 00:50:12;;;;;;;6.78;2.15;;;25.40;99.90;;;;;;4982647;28;20076;-74
2022/08/30 00:52:41;;;;;;;3.45;1.90;;;25.40;99.90;;;;;;4998189;28;20038;-74
2022/08/30 00:55:08;;;;;;;3.15;1.52;;;25.40;99.90;;;;;;4990309;28;20022;-74
2022/08/30 00:57:34;;;;;;;4.35;1.90;;;25.40;99.90;;;;;;5002334;28;20049;-74
2022/08/30 01:00:01;;;;;;;6.60;1.80;;;25.40;99.90;;;;;;5006617;28;20402;-74
2022/08/30 01:02:30;;;;;;;4.03;1.98;;;25.30;99.90;;;;;;4990220;28;20038;-73
2022/08/30 01:04:57;;;;;;;2.72;1.63;;;25.30;99.90;;;;;;4992082;28;20072;-72
2022/08/30 01:07:24;;;;;;;3.58;1.38;;;25.30;99.90;;;;;;5004169;28;20065;-73
2022/08/30 01:09:50;;;;;;;5.70;1.92;;;25.30;99.90;;;;;;5000558;28;20064;-74
2022/08/30 01:12:16;;;;;;;3.72;1.60;;;25.30;99.90;;;;;;5005509;28;20516;-74
2022/08/30 01:14:42;;;;;;;4.38;1.80;;;25.20;99.90;;;;;;5002516;28;20034;-73
2022/08/30 01:17:08;;;;;;;3.60;1.50;;;25.20;99.90;;;;;;5003115;28;20044;-73
2022/08/30 01:19:44;;;;;;;3.88;1.67;;;25.20;99.90;;;;;;5009580;28;20048;-73
2022/08/30 01:22:35;;;;;;;2.92;1.80;;;25.20;99.90;;;;;;5001710;28;20030;-73
2022/08/30 01:25:03;;;;;;;3.53;2.03;;;25.20;99.90;;;;;;5002086;28;20100;-72
2022/08/30 01:27:30;;;;;;;4.72;1.60;;;25.20;99.90;;;;;;5004720;28;20022;-73
2022/08/30 01:29:57;;;;;;;3.22;1.40;;;25.20;99.90;;;;;;5003375;28;20058;-73
2022/08/30 01:32:27;;;;;;;2.80;1.48;;;25.20;99.90;;;;;;5000166;28;20906;-74
2022/08/30 01:34:54;;;;;;;3.28;1.60;;;25.20;99.90;;;;;;4990329;28;20723;-73
2022/08/30 01:37:27;;;;;;;2.72;1.42;;;25.20;99.90;;;;;;5001146;28;20085;-73
2022/08/30 01:39:55;;;;;;;4.00;1.52;;;25.10;99.90;;;;;;4992399;28;20116;-77
2022/08/30 01:42:21;;;;;;;4.15;1.40;;;25.10;99.90;;;;;;5003202;28;20079;-73
2022/08/30 01:44:48;;;;;;;3.50;1.48;;;25.10;99.90;;;;;;5003247;28;20034;-74
2022/08/30 01:47:17;;;;;;;5.28;1.40;;;25.10;99.90;;;;;;4988603;28;20046;-73
2022/08/30 01:49:44;;;;;;;2.60;1.27;;;25.10;99.90;;;;;;5004210;28;20061;-73
2022/08/30 01:52:11;;;;;;;3.15;1.55;;;25.10;99.90;;;;;;5000939;28;20584;-72
2022/08/30 01:54:40;;;;;;;2.75;1.20;;;25.10;99.90;;;;;;5000878;28;20370;-73
2022/08/30 01:57:10;;;;;;;4.15;1.70;;;25.10;99.90;;;;;;4999438;28;20092;-73
2022/08/30 01:59:38;;;;;;;4.35;1.60;;;25.20;99.90;;;;;;4998145;28;20028;-74
2022/08/30 02:02:05;;;;;;;2.38;1.40;;;25.20;99.90;;;;;;4987806;28;20035;-73
2022/08/30 02:04:31;;;;;;;4.07;1.33;;;25.30;99.90;;;;;;4980920;28;20034;-73
2022/08/30 02:06:57;;;;;;;3.63;1.52;;;25.30;99.90;;;;;;5002558;28;20552;-73
2022/08/30 02:09:24;;;;;;;2.83;1.48;;;25.30;99.90;;;;;;5001565;28;20034;-74
2022/08/30 02:11:50;;;;;;;2.63;1.70;;;25.30;99.90;;;;;;4999004;28;20089;-73
2022/08/30 02:14:17;;;;;;;3.33;1.48;;;25.30;99.90;;;;;;4999405;28;20038;-73
2022/08/30 02:16:43;;;;;;;2.75;1.25;;;25.40;99.90;;;;;;5001577;28;20515;-73
2022/08/30 02:19:10;;;;;;;3.70;1.70;;;25.40;99.90;;;;;;4999238;28;20041;-73
2022/08/30 02:21:36;;;;;;;4.78;1.50;;;25.50;99.90;;;;;;4983240;28;20038;-74
2022/08/30 02:24:02;;;;;;;4.07;1.55;;;25.50;99.90;;;;;;5002249;28;20046;-73
2022/08/30 02:26:29;;;;;;;4.63;1.58;;;25.50;99.90;;;;;;5000379;28;20103;-73
2022/08/30 02:28:55;;;;;;;2.95;1.40;;;25.60;99.90;;;;;;4987391;28;20212;-73
2022/08/30 02:31:22;;;;;;;4.30;1.50;;;25.60;99.90;;;;;;4998171;28;20525;-73
2022/08/30 02:33:51;;;;;;;5.00;1.50;;;25.70;99.90;;;;;;5000446;28;20084;-72
2022/08/30 02:36:19;;;;;;;6.05;1.30;;;25.70;99.90;;;;;;4998729;28;20073;-73
2022/08/30 02:38:46;;;;;;;3.10;1.27;;;25.70;99.90;;;;;;4989361;28;20413;-73
2022/08/30 02:41:12;;;;;;;4.65;1.65;;;25.70;99.90;;;;;;4984912;28;20045;-74
2022/08/30 02:43:38;;;;;;;6.03;1.38;;;25.60;99.90;;;;;;4980699;28;20038;-73
2022/08/30 02:46:04;;;;;;;3.95;1.75;;;25.60;99.90;;;;;;5000170;28;20035;-73
2022/08/30 02:48:30;;;;;;;5.57;1.48;;;25.60;99.90;;;;;;5001527;28;20061;-73
2022/08/30 02:51:07;;;;;;;3.17;1.23;;;25.60;99.90;;;;;;5001074;28;20029;-73
2022/08/30 02:53:34;;;;;;;3.83;1.50;;;25.60;99.90;;;;;;4984509;28;20110;-74
2022/08/30 02:55:59;;;;;;;4.32;1.50;;;25.50;99.90;;;;;;5000201;28;20436;-73
2022/08/30 02:58:25;;;;;;;4.65;1.50;;;25.50;99.90;;;;;;4987783;28;20064;-74
2022/08/30 03:00:51;;;;;;;3.63;1.60;;;25.60;99.90;;;;;;5000898;28;20069;-73
2022/08/30 03:03:17;;;;;;;5.53;1.48;;;25.60;99.90;;;;;;4991512;28;20343;-73
2022/08/30 03:05:43;;;;;;;4.65;1.73;;;25.60;99.90;;;;;;5000231;28;20030;-74
2022/08/30 03:08:10;;;;;;;4.57;1.70;;;25.60;99.90;;;;;;5005658;28;20118;-73
2022/08/30 03:10:37;;;;;;;4.28;1.45;;;25.60;99.90;;;;;;5005997;28;20031;-73
2022/08/30 03:13:06;;;;;;;2.78;1.48;;;25.60;99.90;;;;;;5005849;28;20045;-73
2022/08/30 03:15:34;;;;;;;3.40;1.15;;;25.60;99.90;;;;;;5006065;28;20096;-73
2022/08/30 03:18:00;;;;;;;4.05;1.55;;;25.60;99.90;;;;;;4987290;28;20044;-75
2022/08/30 03:20:27;;;;;;;4.55;1.45;;;25.60;99.90;;;;;;4999522;28;20029;-73
2022/08/30 03:22:52;;;;;;;4.45;1.50;;;25.60;99.90;;;;;;5005732;28;20030;-73
2022/08/30 03:25:19;;;;;;;6.95;1.65;;;25.60;99.90;;;;;;4996032;28;20054;-73
2022/08/30 03:27:46;;;;;;;4.05;1.42;;;25.40;99.90;;;;;;5006460;28;20054;-73
2022/08/30 03:30:15;;;;;;;6.28;1.50;;;25.40;99.90;;;;;;5004019;28;20041;-74
2022/08/30 03:32:42;;;;;;;4.13;1.20;;;25.50;99.90;;;;;;4984832;28;20124;-74
2022/08/30 03:35:08;;;;;;;3.40;1.40;;;25.40;99.90;;;;;;5003299;28;20049;-73
2022/08/30 03:37:35;;;;;;;3.10;1.40;;;25.40;99.90;;;;;;5003888;28;20038;-74
2022/08/30 03:40:02;;;;;;;3.15;1.40;;;25.40;99.90;;;;;;4982911;28;20034;-73
2022/08/30 03:42:28;;;;;;;3.70;1.58;;;25.40;99.90;;;;;;5001487;28;20045;-73
2022/08/30 03:44:55;;;;;;;4.72;1.60;;;25.40;99.90;;;;;;5003745;28;20395;-73
2022/08/30 03:47:20;;;;;;;4.68;1.52;;;25.30;99.90;;;;;;5003192;28;20041;-73
2022/08/30 03:49:47;;;;;;;3.78;1.35;;;25.30;99.90;;;;;;4998870;28;20026;-73
2022/08/30 03:52:13;;;;;;;4.65;1.38;;;25.30;99.90;;;;;;4984660;28;20357;-73
2022/08/30 03:54:39;;;;;;;3.22;1.35;;;25.30;99.90;;;;;;5009874;28;20133;-74
2022/08/30 03:57:05;;;;;;;4.50;1.40;;;25.30;99.90;;;;;;5005066;28;20042;-74
2022/08/30 03:59:31;;;;;;;2.83;1.48;;;25.30;99.90;;;;;;4991241;28;20065;-73
2022/08/30 04:01:58;;;;;;;7.57;1.50;;;25.30;99.90;;;;;;5005165;28;20616;-73
2022/08/30 04:04:25;;;;;;;3.95;1.73;;;25.30;99.90;;;;;;5003163;28;20034;-73
2022/08/30 04:06:51;;;;;;;3.60;1.58;;;25.20;99.90;;;;;;5004451;28;20038;-73
2022/08/30 04:09:18;;;;;;;6.40;1.45;;;25.20;99.90;;;;;;4992641;28;20042;-73
2022/08/30 04:11:43;;;;;;;6.82;1.90;;;25.20;99.90;;;;;;5001496;28;20026;-74
2022/08/30 04:14:09;;;;;;;4.93;1.65;;;25.20;99.90;;;;;;5001649;28;20042;-73
2022/08/30 04:16:35;;;;;;;4.82;1.80;;;25.20;99.90;;;;;;4987734;28;20034;-73
2022/08/30 04:19:01;;;;;;;7.60;1.70;;;25.10;99.90;;;;;;5003250;28;20044;-74
2022/08/30 04:21:27;;;;;;;5.38;1.70;;;25.10;99.90;;;;;;5002703;28;20121;-73
2022/08/30 04:23:52;;;;;;;3.97;1.60;;;25.10;99.90;;;;;;5000296;28;20056;-73
2022/08/30 04:26:19;;;;;;;3.55;1.70;;;25.10;99.90;;;;;;4999822;28;20413;-74
2022/08/30 04:28:44;;;;;;;3.88;1.60;;;25.00;99.90;;;;;;4987146;28;20026;-73
2022/08/30 04:31:14;;;;;;;4.75;1.67;;;25.00;99.90;;;;;;4999612;28;20080;-74
2022/08/30 04:33:41;;;;;;;4.32;1.60;;;25.00;99.90;;;;;;5004625;28;20071;-74
2022/08/30 04:36:08;;;;;;;3.85;1.48;;;25.00;99.90;;;;;;5006782;28;20483;-74
2022/08/30 04:38:35;;;;;;;6.38;1.45;;;25.00;99.90;;;;;;4983073;28;20396;-74
2022/08/30 04:41:01;;;;;;;3.85;1.60;;;25.00;99.90;;;;;;5004899;28;20030;-74
2022/08/30 04:43:27;;;;;;;5.25;1.60;;;25.00;99.90;;;;;;5003442;28;20122;-74
2022/08/30 04:45:54;;;;;;;4.40;1.77;;;25.00;99.90;;;;;;5003066;28;20117;-74
2022/08/30 04:48:21;;;;;;;3.20;1.50;;;24.90;99.90;;;;;;4999781;28;20706;-74
2022/08/30 04:50:47;;;;;;;5.15;1.70;;;24.90;99.90;;;;;;5001051;28;20034;-74
2022/08/30 04:53:14;;;;;;;4.63;1.70;;;24.90;99.90;;;;;;4984733;28;20228;-73
2022/08/30 04:55:42;;;;;;;3.55;1.63;;;24.90;99.90;;;;;;5002645;28;20553;-74
2022/08/30 04:58:09;;;;;;;4.43;1.63;;;24.90;99.90;;;;;;4999057;28;20084;-74
2022/08/30 05:00:40;;;;;;;5.85;2.35;;;24.90;99.90;;;;;;5004944;28;20505;-73
2022/08/30 05:03:06;;;;;;;4.85;1.40;;;24.90;99.90;;;;;;5002410;28;20466;-73
2022/08/30 05:05:41;;;;;;;4.50;1.50;;;24.90;99.90;;;;;;4986865;28;20026;-74
2022/08/30 05:08:11;;;;;;;3.65;1.33;;;24.90;99.90;;;;;;5002707;28;20093;-74
2022/08/30 05:10:39;;;;;;;5.38;1.70;;;24.80;99.90;;;;;;5000428;28;20034;-73
2022/08/30 05:13:05;;;;;;;3.58;1.40;;;24.80;99.90;;;;;;4992139;28;20037;-73
2022/08/30 05:15:31;;;;;;;4.57;1.60;;;24.80;99.90;;;;;;5007353;28;20081;-74
2022/08/30 05:17:57;;;;;;;3.33;1.40;;;24.80;99.90;;;;;;5003468;28;20057;-74
2022/08/30 05:20:23;;;;;;;3.95;1.77;;;24.80;99.90;;;;;;4981872;28;20485;-74
2022/08/30 05:22:48;;;;;;;4.90;1.58;;;24.80;99.90;;;;;;5003543;28;20855;-74
2022/08/30 05:25:27;;;;;;;4.45;1.65;;;24.80;99.90;;;;;;4993568;28;20405;-74
2022/08/30 05:27:54;;;;;;;5.78;1.67;;;24.80;99.90;;;;;;4984782;28;20540;-74
2022/08/30 05:30:22;;;;;;;5.63;1.70;;;24.80;99.90;;;;;;5001709;28;20040;-74
2022/08/30 05:32:48;;;;;;;3.25;1.50;;;24.80;99.90;;;;;;4982645;28;20030;-73
2022/08/30 05:35:16;;;;;;;6.35;2.00;;;24.80;99.90;;;;;;5003527;28;20592;-74
2022/08/30 05:37:43;;;;;;;7.72;1.80;;;24.90;99.90;;;;;;5001230;28;20046;-74
2022/08/30 05:40:09;;;;;;;3.42;1.67;;;24.90;99.90;;;;;;4991598;28;20049;-73
2022/08/30 05:42:36;;;;;;;3.70;1.73;;;24.90;99.90;;;;;;4985592;28;20060;-74
2022/08/30 05:45:03;;;;;;;5.18;1.60;;;24.90;99.90;;;;;;4984508;28;20038;-73
2022/08/30 05:47:30;;;;;;;4.22;1.55;;;25.00;99.90;;;;;;5000874;28;20049;-76
2022/08/30 05:49:56;;;;;;;6.18;1.63;;;25.00;99.90;;;;;;5003549;28;20041;-73
2022/08/30 05:52:22;;;;;;;5.97;1.70;;;25.10;99.90;;;;;;4995719;28;20055;-73
2022/08/30 05:54:53;;;;;;;4.45;1.60;;;25.10;99.90;;;;;;4995801;28;20058;-75
2022/08/30 05:57:19;;;;;;;5.60;1.63;;;25.20;99.90;;;;;;4983649;28;20089;-75
2022/08/30 05:59:45;;;;;;;4.40;1.52;;;25.30;99.90;;;;;;4999757;28;20268;-73
2022/08/30 06:02:11;;;;;;;4.53;1.70;;;25.30;99.90;;;;;;5000796;28;20441;-74
2022/08/30 06:04:37;;;;;;;4.25;1.70;;;25.40;99.90;;;;;;4996465;28;20089;-73
2022/08/30 06:07:03;;;;;;;3.67;1.70;;;25.50;99.90;;;;;;4998799;28;20116;-75
2022/08/30 06:09:30;;;;;;;4.82;1.98;;;25.50;99.90;;;;;;5000307;28;20035;-74
2022/08/30 06:11:56;;;;;;;4.93;1.83;;;25.50;99.90;;;;;;4982580;28;20140;-75
2022/08/30 06:14:23;;;;;;;5.88;2.13;;;25.60;99.90;;;;;;4990363;28;20042;-74
2022/08/30 06:16:49;;;;;;;7.47;2.33;;;25.60;99.90;;;;;;4989093;28;20037;-73
2022/08/30 06:19:15;;;;;;;6.43;2.30;;;25.70;99.90;;;;;;5000298;28;20026;-74
2022/08/30 06:21:42;;;;;;;5.05;1.90;;;25.80;99.90;;;;;;5002309;28;20378;-74
2022/08/30 06:24:10;;;;;;;7.38;1.77;;;25.80;99.90;;;;;;5002232;28;20030;-75
2022/08/30 06:26:44;;;;;;;5.97;1.88;;;25.90;99.90;;;;;;5003969;28;20034;-74
2022/08/30 06:29:13;;;;;;;6.07;2.20;;;26.00;99.90;;;;;;4998049;28;20045;-74
2022/08/30 06:31:39;;;;;;;8.98;1.98;;;26.00;99.90;;;;;;5004841;28;20033;-74
2022/08/30 06:34:05;;;;;;;5.93;2.03;;;26.00;99.90;;;;;;4990851;28;20109;-73
2022/08/30 06:36:32;;;;;;;10.05;2.55;;;26.10;99.90;;;;;;5001427;28;20081;-73
2022/08/30 06:38:59;;;;;;;9.15;2.28;;;26.10;99.90;;;;;;5001883;28;20068;-74
2022/08/30 06:41:27;;;;;;;7.18;2.33;;;26.20;99.90;;;;;;5001277;28;20046;-74
2022/08/30 06:43:54;;;;;;;11.13;2.58;;;26.20;99.90;;;;;;5001258;28;20111;-75
2022/08/30 06:46:26;;;;;;;14.05;2.40;;;26.30;99.90;;;;;;4989612;28;20041;-74
2022/08/30 06:48:52;;;;;;;7.03;1.88;;;26.30;99.90;;;;;;5000107;28;20749;-74
2022/08/30 06:51:25;;;;;;;9.02;2.25;;;26.30;99.90;;;;;;5006142;28;20050;-74
2022/08/30 06:53:51;;;;;;;5.22;2.00;;;26.30;99.90;;;;;;4986265;28;20030;-74
2022/08/30 06:56:17;;;;;;;5.45;2.10;;;26.40;99.90;;;;;;4990080;28;20054;-75
2022/08/30 06:58:44;;;;;;;6.78;1.95;;;26.50;99.90;;;;;;4980779;28;20580;-74
2022/08/30 07:01:22;;;;;;;7.55;2.50;;;26.40;99.90;;;;;;4995838;28;20045;-74
2022/08/30 07:03:48;;;;;;;5.30;2.33;;;26.50;99.90;;;;;;4985738;28;20068;-75
2022/08/30 07:06:15;;;;;;;7.30;2.00;;;26.60;99.90;;;;;;4999696;28;20067;-76
2022/08/30 07:08:41;;;;;;;11.13;2.35;;;26.60;99.90;;;;;;5003837;28;20148;-74
2022/08/30 07:11:08;;;;;;;7.85;2.30;;;26.60;99.90;;;;;;5000909;28;20057;-75
2022/08/30 07:13:35;;;;;;;9.13;1.98;;;26.60;99.90;;;;;;4999473;28;20034;-75
2022/08/30 07:16:12;;;;;;;5.60;2.13;;;26.60;99.90;;;;;;4979655;28;20806;-75
2022/08/30 07:18:53;;;;;;;5.35;2.10;;;26.50;99.90;;;;;;4997792;28;20055;-75
2022/08/30 07:21:35;;;;;;;9.07;2.50;;;26.60;99.90;;;;;;4999298;28;20065;-75
2022/08/30 07:24:02;;;;;;;10.35;2.05;;;26.60;99.90;;;;;;4988561;28;20391;-74
2022/08/30 07:26:37;;;;;;;8.35;2.67;;;26.80;99.90;;;;;;4983931;28;20044;-74
2022/08/30 07:29:03;;;;;;;5.22;2.00;;;26.80;99.90;;;;;;5003541;28;20037;-73
2022/08/30 07:31:30;;;;;;;7.97;2.22;;;26.80;99.90;;;;;;5003895;28;20030;-75
2022/08/30 07:33:56;;;;;;;6.05;1.90;;;26.90;99.90;;;;;;5000416;28;20022;-74
2022/08/30 07:36:22;;;;;;;4.22;2.03;;;27.00;99.90;;;;;;4980826;28;21599;-74
2022/08/30 07:38:49;;;;;;;5.10;2.05;;;27.10;99.90;;;;;;5001531;28;20509;-74
2022/08/30 07:41:24;;;;;;;7.15;2.00;;;27.10;99.90;;;;;;4988194;28;20042;-74
2022/08/30 07:43:50;;;;;;;11.55;2.55;;;27.10;99.90;;;;;;5000948;28;20034;-75
2022/08/30 07:46:16;;;;;;;7.68;2.20;;;27.20;99.90;;;;;;5003956;28;20034;-75
2022/08/30 07:48:43;;;;;;;7.25;2.33;;;27.10;99.90;;;;;;5006771;28;20064;-74
2022/08/30 07:51:15;;;;;;;17.33;3.00;;;27.10;99.90;;;;;;5004454;28;20046;-74
2022/08/30 07:53:41;;;;;;;;;;;27.20;99.90;;;;;;5004923;28;20038;-74
2022/08/30 07:56:07;;;;;;;6.80;2.40;;;27.10;99.90;;;;;;5000461;28;19914;-74
2022/08/30 07:58:33;;;;;;;6.82;2.38;;;27.20;99.90;;;;;;5001715;28;20048;-74
2022/08/30 08:01:00;;;;;;;7.40;2.20;;;27.30;99.90;;;;;;5005006;28;20146;-74
2022/08/30 08:03:27;;;;;;;7.20;2.22;;;27.50;99.90;;;;;;4998542;28;20119;-74
2022/08/30 08:05:54;;;;;;;8.18;2.08;;;27.60;99.90;;;;;;4985717;28;20149;-74
2022/08/30 08:08:21;;;;;;;6.97;2.30;;;27.70;99.90;;;;;;4993671;28;20030;-74
2022/08/30 08:10:46;;;;;;;10.38;2.70;;;27.70;99.90;;;;;;5002795;28;20038;-74
2022/08/30 08:13:12;;;;;;;5.63;2.20;;;27.70;99.90;;;;;;5000513;28;20085;-74
2022/08/30 08:15:38;;;;;;;7.30;2.63;;;27.50;99.90;;;;;;5004989;28;20073;-74
2022/08/30 08:18:04;;;;;;;6.75;2.15;;;27.50;99.90;;;;;;5002284;28;20092;-75
2022/08/30 08:20:32;;;;;;;4.95;2.22;;;27.70;99.90;;;;;;5001115;28;20069;-75
2022/08/30 08:22:58;;;;;;;9.07;2.30;;;27.60;99.90;;;;;;5005519;28;20731;-74
2022/08/30 08:25:24;;;;;;;11.43;2.67;;;27.80;99.90;;;;;;5001581;28;20088;-74
2022/08/30 08:27:50;;;;;;;9.65;2.80;;;27.80;99.90;;;;;;5001799;28;20084;-74
2022/08/30 08:30:20;;;;;;;7.93;2.60;;;28.10;99.90;;;;;;4990824;28;20517;-74
2022/08/30 08:32:47;;;;;;;9.85;2.90;;;28.20;99.90;;;;;;5002562;28;20034;-74
2022/08/30 08:35:14;;;;;;;10.18;2.80;;;28.20;99.90;;;;;;5002698;28;20065;-75
2022/08/30 08:37:40;;;;;;;10.02;2.25;;;28.20;99.90;;;;;;4985786;28;20064;-74
2022/08/30 08:40:07;;;;;;;8.77;2.80;;;28.40;99.90;;;;;;4985478;28;20046;-74
2022/08/30 08:42:48;;;;;;;8.95;2.80;;;28.60;99.90;;;;;;4998221;28;20129;-74
2022/08/30 08:45:25;;;;;;;7.63;2.72;;;28.70;99.90;;;;;;4987652;28;20049;-74
2022/08/30 08:48:00;;;;;;;9.88;2.40;;;28.30;99.90;;;;;;4995235;28;20061;-73
2022/08/30 08:50:26;;;;;;;7.35;2.22;;;28.40;99.90;;;;;;4992430;28;20133;-74
2022/08/30 08:55:47;;;;;;;9.75;2.47;;;28.60;99.90;;;;;;4996641;28;20130;-74
2022/08/30 08:58:20;;;;;;;7.82;2.30;;;28.70;99.90;;;;;;4992655;28;20039;-75
2022/08/30 09:00:45;;;;;;;6.25;2.15;;;28.70;99.90;;;;;;4997282;28;20112;-74
2022/08/30 09:03:15;;;;;;;8.25;2.10;;;28.60;99.90;;;;;;4976297;28;20133;-73
2022/08/30 09:05:43;;;;;;;7.50;2.75;;;28.90;99.90;;;;;;4999822;28;20350;-74
2022/08/30 09:08:15;;;;;;;7.82;2.45;;;28.80;99.90;;;;;;4997292;28;20042;-74
2022/08/30 09:10:49;;;;;;;5.00;2.50;;;29.10;99.90;;;;;;4993964;28;20043;-75
2022/08/30 09:13:14;;;;;;;6.78;2.70;;;28.90;99.90;;;;;;4994563;28;20046;-74
2022/08/30 09:15:40;;;;;;;8.15;2.60;;;29.00;99.90;;;;;;4997531;28;20099;-75
2022/08/30 09:18:10;;;;;;;7.53;2.40;;;29.20;99.90;;;;;;4979556;28;20045;-74
2022/08/30 09:20:40;;;;;;;12.02;2.83;;;29.10;99.90;;;;;;4999113;28;20041;-73
2022/08/30 09:23:14;;;;;;;7.85;2.60;;;29.30;99.90;;;;;;4993403;28;20042;-74
2022/08/30 09:26:07;;;;;;;9.20;2.75;;;29.50;99.90;;;;;;4979701;28;20460;-74
2022/08/30 09:28:43;;;;;;;5.82;2.70;;;29.00;99.90;;;;;;4974979;28;20587;-73
2022/08/30 09:31:29;;;;;;;9.20;2.97;;;29.20;99.90;;;;;;4977713;28;20449;-73
2022/08/30 09:34:06;;;;;;;10.70;3.10;;;29.30;99.90;;;;;;4992079;28;20074;-75
2022/08/30 09:36:45;;;;;;;8.18;2.80;;;29.50;99.90;;;;;;4980711;28;20053;-73
2022/08/30 09:39:36;;;;;;;6.43;2.90;;;29.10;99.90;;;;;;4984830;28;20066;-74
2022/08/30 09:42:20;;;;;;;8.70;2.55;;;29.40;99.90;;;;;;4974911;28;20402;-74
2022/08/30 09:44:46;;;;;;;10.57;3.22;;;29.50;99.90;;;;;;4982612;28;20096;-74
2022/08/30 09:47:23;;;;;;;9.02;2.70;;;29.60;99.90;;;;;;4989538;28;20033;-75
2022/08/30 09:49:49;;;;;;;12.43;3.00;;;29.50;99.90;;;;;;4992546;28;20037;-73
2022/08/30 09:52:30;;;;;;;12.25;2.70;;;29.50;99.90;;;;;;4973090;28;20518;-75
2022/08/30 09:54:56;;;;;;;9.13;2.67;;;29.40;99.90;;;;;;4989413;28;20038;-74
2022/08/30 09:57:47;;;;;;;10.02;3.17;;;29.50;99.90;;;;;;4985720;28;20272;-74
2022/08/30 10:00:22;;;;;;;8.95;3.25;;;29.80;99.90;;;;;;4986344;28;20037;-74
2022/08/30 10:02:57;;;;;;;10.20;3.05;;;30.00;99.90;;;;;;4985494;28;20676;-75
2022/08/30 10:05:35;;;;;;;13.82;4.18;;;29.90;99.90;;;;;;4979512;28;20074;-74
2022/08/30 10:08:20;;;;;;;12.35;3.47;;;30.20;99.90;;;;;;4984866;28;20041;-74
2022/08/30 10:10:57;;;;;;;9.43;3.03;;;30.20;99.90;;;;;;4987954;28;20048;-73
2022/08/30 10:13:44;;;;;;;11.25;3.33;;;30.10;99.90;;;;;;4968906;28;20045;-73
2022/08/30 10:16:35;;;;;;;13.70;3.42;;;30.30;99.90;;;;;;4984632;28;20048;-74
2022/08/30 10:19:31;;;;;;;10.57;3.15;;;30.50;99.90;;;;;;4992392;28;20088;-75
2022/08/30 10:22:05;;;;;;;13.25;3.90;;;30.50;99.90;;;;;;4968404;28;20039;-74
2022/08/30 10:24:39;;;;;;;7.82;3.40;;;30.30;99.90;;;;;;4995398;28;20187;-74
2022/08/30 10:27:11;;;;;;;13.13;3.28;;;30.60;99.90;;;;;;4998333;28;20199;-74
2022/08/30 10:29:46;;;;;;;13.68;3.47;;;30.90;99.90;;;;;;5000850;28;20041;-74
2022/08/30 10:32:34;;;;;;;13.23;3.70;;;31.20;99.90;;;;;;5002387;28;20409;-75
2022/08/30 10:35:14;;;;;;;7.03;3.20;;;31.10;99.90;;;;;;4994760;28;20552;-74
2022/08/30 10:37:46;;;;;;;7.22;3.78;;;31.50;99.90;;;;;;4993234;28;20931;-73
2022/08/30 10:43:27;;;;;;;12.82;3.90;;;31.30;99.90;;;;;;4990657;28;20048;-74
2022/08/30 10:45:58;;;;;;;11.43;3.90;;;31.30;99.90;;;;;;4977101;28;20030;-75
2022/08/30 10:48:41;;;;;;;10.02;4.18;;;31.70;99.90;;;;;;4993983;28;20069;-74
2022/08/30 10:51:20;;;;;;;9.75;3.90;;;32.30;99.90;;;;;;4978320;28;20038;-74
2022/08/30 10:53:53;;;;;;;8.30;3.33;;;32.70;99.90;;;;;;4975687;28;20042;-74
2022/08/30 10:56:23;;;;;;;14.00;3.83;;;31.90;99.90;;;;;;4974322;28;20038;-74
2022/08/30 10:58:51;;;;;;;7.40;3.80;;;31.40;99.90;;;;;;4991386;28;20070;-75
2022/08/30 11:01:38;;;;;;;12.77;3.47;;;31.00;99.90;;;;;;4974978;28;20068;-75
2022/08/30 11:04:29;;;;;;;11.00;2.97;;;31.50;99.90;;;;;;4981008;28;20957;-75
2022/08/30 11:06:55;;;;;;;9.48;3.58;;;31.70;99.90;;;;;;4995166;28;20295;-75
2022/08/30 11:09:41;;;;;;;5.80;2.90;;;31.80;99.90;;;;;;4992864;28;20547;-74
2022/08/30 11:12:36;;;;;;;7.82;3.10;;;31.60;99.90;;;;;;4994385;28;20034;-75
2022/08/30 11:15:18;;;;;;;12.25;3.50;;;31.20;99.90;;;;;;4975896;28;20045;-75
2022/08/30 11:17:58;;;;;;;7.72;2.83;;;31.50;99.90;;;;;;4977470;28;20057;-75
2022/08/30 11:20:41;;;;;;;8.90;2.75;;;31.30;99.90;;;;;;4980562;28;20049;-75
2022/08/30 11:23:20;;;;;;;12.73;3.63;;;31.60;99.90;;;;;;4995660;28;20441;-76
2022/08/30 11:25:54;;;;;;;9.85;2.65;;;31.60;99.90;;;;;;5003586;28;20038;-76
2022/08/30 11:28:35;;;;;;;10.68;3.00;;;31.70;99.90;;;;;;4997707;28;20038;-75
2022/08/30 11:31:10;;;;;;;11.18;3.15;;;32.30;99.90;;;;;;5005303;28;20065;-76
2022/08/30 11:33:43;;;;;;;15.90;2.95;;;32.20;99.90;;;;;;4992173;28;20046;-75
2022/08/30 11:36:11;;;;;;;7.80;2.50;;;32.20;99.90;;;;;;4977607;28;20508;-76
2022/08/30 11:38:37;;;;;;;7.80;2.20;;;32.20;99.90;;;;;;5000243;28;20061;-75
2022/08/30 11:41:08;;;;;;;10.70;2.78;;;31.90;99.90;;;;;;4997490;28;20066;-75
2022/08/30 11:43:34;;;;;;;15.30;2.70;;;32.00;99.90;;;;;;4999166;28;20101;-74
2022/08/30 11:46:25;;;;;;;6.68;2.35;;;32.30;99.90;;;;;;5002197;28;20822;-75
2022/08/30 11:49:11;;;;;;;10.68;2.80;;;32.80;99.90;;;;;;4989217;28;20410;-75
2022/08/30 11:51:43;;;;;;;9.75;2.90;;;33.00;99.90;;;;;;5001596;28;20034;-74
2022/08/30 11:54:17;;;;;;;;;;;32.60;99.90;;;;;;4989205;28;20095;-75
2022/08/30 11:57:21;;;;;;;6.20;2.47;;;31.70;99.90;;;;;;4999471;28;19913;-72
2022/08/30 11:59:59;;;;;;;8.10;2.25;;;31.40;99.90;;;;;;4965747;28;20046;-75
2022/08/30 12:02:51;;;;;;;10.65;2.35;;;32.30;99.90;;;;;;4991439;28;20018;-75
2022/08/30 12:05:38;;;;;;;8.65;2.08;;;31.80;99.90;;;;;;5003902;28;20030;-75
2022/08/30 12:08:27;;;;;;;6.68;2.15;;;31.70;99.90;;;;;;4989211;28;20042;-75
2022/08/30 12:10:57;;;;;;;9.75;2.47;;;31.70;99.90;;;;;;4992152;28;20027;-73
2022/08/30 12:13:38;;;;;;;7.00;2.22;;;31.50;99.90;;;;;;4989016;28;20113;-75
2022/08/30 12:16:21;;;;;;;;;;;32.10;99.90;;;;;;4994444;28;20117;-72
2022/08/30 12:18:51;;;;;;;9.02;2.50;;;31.90;99.90;;;;;;5004309;28;20385;-71
2022/08/30 12:21:20;;;;;;;9.37;2.83;;;31.80;99.90;;;;;;4983133;28;20956;-70
2022/08/30 12:23:49;;;;;;;7.80;2.35;;;32.20;99.90;;;;;;5003721;28;20033;-71
2022/08/30 12:26:33;;;;;;;6.95;2.35;;;33.00;99.90;;;;;;4997578;28;20505;-70
2022/08/30 12:29:17;;;;;;;5.70;2.15;;;33.30;99.90;;;;;;4989773;28;20030;-71
2022/08/30 12:31:46;;;;;;;9.57;2.85;;;31.90;99.90;;;;;;4983193;28;20031;-71
2022/08/30 12:34:42;;;;;;;10.18;2.53;;;32.70;99.90;;;;;;4997126;28;20138;-71
2022/08/30 12:37:21;;;;;;;6.22;2.05;;;32.80;99.90;;;;;;4975822;28;20038;-72
2022/08/30 12:39:49;;;;;;;11.65;2.15;;;32.50;99.90;;;;;;5002963;28;20039;-72
2022/08/30 12:42:22;;;;;;;9.70;2.80;;;31.90;99.90;;;;;;4981765;28;20057;-72
2022/08/30 12:44:50;;;;;;;7.60;2.38;;;32.40;99.90;;;;;;4992757;28;20026;-71
2022/08/30 12:47:26;;;;;;;7.13;2.20;;;31.90;99.90;;;;;;5002986;28;20061;-71
2022/08/30 12:49:54;;;;;;;8.88;2.38;;;32.30;99.90;;;;;;4997305;28;20044;-71
2022/08/30 12:52:25;;;;;;;7.43;2.30;;;31.90;99.90;;;;;;4998226;28;20038;-73
2022/08/30 12:54:52;;;;;;;6.10;2.47;;;31.90;99.90;;;;;;5001476;28;20069;-72
2022/08/30 12:57:40;;;;;;;17.65;3.03;;;31.70;99.90;;;;;;5003164;28;20045;-72
2022/08/30 13:00:10;;;;;;;6.97;2.70;;;31.70;99.90;;;;;;4983806;28;20030;-74
2022/08/30 13:02:51;;;;;;;10.18;2.47;;;31.10;99.90;;;;;;5003184;28;20052;-74
2022/08/30 13:05:50;;;;;;;9.32;2.67;;;32.10;99.90;;;;;;4982252;28;20470;-70
2022/08/30 13:08:54;;;;;;;6.43;2.50;;;31.90;99.90;;;;;;4960128;28;20034;-71